Time;durP1;ratioP1;P1;durP2;ratioP2;P2;SDS_P1;SDS_P2;PMS_P1;PMS_P2;Temp;Humidity;BMP_temperature;BMP_pressure;BME280_temperature;BME280_humidity;BME280_pressure;Samples;Min_cycle;Max_cycle;Signal;HPM_P1;HPM_P2
2021/04/21 00:01:16;;;;;;;38.90;19.20;;;;;;;;;;4967096;28;20556;-68
2021/04/21 00:03:44;;;;;;;36.90;19.63;;;;;;;;;;4966183;28;20058;-68
2021/04/21 00:06:15;;;;;;;42.45;20.67;;;;;;;;;;4964753;28;20138;-68
2021/04/21 00:08:43;;;;;;;36.83;19.23;;;;;;;;;;4967492;28;20150;-68
2021/04/21 00:11:11;;;;;;;37.05;18.45;;;;;;;;;;4973635;28;20113;-67
2021/04/21 00:13:38;;;;;;;36.28;19.23;;;;;;;;;;4975038;28;20046;-67
2021/04/21 00:16:07;;;;;;;33.78;17.75;;;;;;;;;;4972350;28;20462;-68
2021/04/21 00:18:36;;;;;;;33.92;17.98;;;;;;;;;;4973423;28;20100;-67
2021/04/21 00:21:04;;;;;;;40.58;17.75;;;;;;;;;;4973840;28;20043;-67
2021/04/21 00:23:34;;;;;;;40.33;20.17;;;;;;;;;;4962150;28;20050;-67
2021/04/21 00:26:02;;;;;;;34.08;18.27;;;;;;;;;;4961553;28;20055;-67
2021/04/21 00:28:32;;;;;;;35.53;17.77;;;;;;;;;;4962983;28;20054;-67
2021/04/21 00:31:02;;;;;;;32.88;17.45;;;;;;;;;;4974388;28;20046;-67
2021/04/21 00:33:29;;;;;;;34.05;17.65;;;;;;;;;;4970414;28;20097;-67
2021/04/21 00:35:57;;;;;;;36.92;18.13;;;;;;;;;;4971706;28;20519;-67
2021/04/21 00:38:25;;;;;;;31.45;17.25;;;;;;;;;;4964122;28;20494;-67
2021/04/21 00:40:56;;;;;;;35.20;17.05;;;;;;;;;;4964408;28;20047;-67
2021/04/21 00:43:29;;;;;;;33.50;16.00;;;;;;;;;;4972853;28;20503;-67
2021/04/21 00:46:08;;;;;;;33.97;16.70;;;;;;;;;;4962710;28;20154;-68
2021/04/21 00:48:51;;;;;;;32.70;17.27;;;;;;;;;;4963247;28;20396;-67
2021/04/21 00:51:23;;;;;;;32.28;16.58;;;;;;;;;;4970773;28;20090;-67
2021/04/21 00:53:52;;;;;;;32.47;16.20;;;;;;;;;;4960048;28;20078;-67
2021/04/21 00:56:24;;;;;;;37.28;17.80;;;;;;;;;;4963238;28;20070;-67
2021/04/21 00:58:56;;;;;;;30.65;15.60;;;;;;;;;;4968701;28;20137;-67
2021/04/21 01:01:23;;;;;;;29.63;15.52;;;;;;;;;;4975389;28;20077;-67
2021/04/21 01:03:52;;;;;;;38.00;18.70;;;;;;;;;;4972218;28;20561;-67
2021/04/21 01:06:21;;;;;;;33.15;16.80;;;;;;;;;;4965076;28;20078;-67
2021/04/21 01:08:50;;;;;;;31.98;16.90;;;;;;;;;;4970455;28;20122;-67
2021/04/21 01:11:19;;;;;;;33.33;17.70;;;;;;;;;;4970280;28;20190;-67
2021/04/21 01:13:48;;;;;;;28.73;16.73;;;;;;;;;;4963346;28;20075;-67
2021/04/21 01:16:18;;;;;;;31.33;16.40;;;;;;;;;;4971044;28;20567;-67
2021/04/21 01:18:46;;;;;;;33.42;17.17;;;;;;;;;;4968367;28;20097;-67
2021/04/21 01:21:16;;;;;;;38.50;18.15;;;;;;;;;;4961909;28;20118;-67
2021/04/21 01:24:05;;;;;;;36.60;17.73;;;;;;;;;;4968635;28;20046;-67
2021/04/21 01:26:43;;;;;;;34.10;17.08;;;;;;;;;;4956962;28;20078;-67
2021/04/21 01:29:12;;;;;;;30.98;16.48;;;;;;;;;;4942758;28;20091;-67
2021/04/21 01:31:40;;;;;;;32.65;16.08;;;;;;;;;;4957823;28;20126;-67
2021/04/21 01:34:08;;;;;;;30.15;14.80;;;;;;;;;;4967233;28;20059;-67
2021/04/21 01:36:37;;;;;;;30.80;15.60;;;;;;;;;;4973708;28;20513;-67
2021/04/21 01:39:04;;;;;;;27.38;15.55;;;;;;;;;;4959663;28;20062;-67
2021/04/21 01:41:38;;;;;;;27.50;15.48;;;;;;;;;;4972427;28;20078;-67
2021/04/21 01:44:07;;;;;;;32.72;15.90;;;;;;;;;;4961247;28;20050;-67
2021/04/21 01:46:38;;;;;;;29.35;15.27;;;;;;;;;;4973985;28;20055;-67
2021/04/21 01:49:10;;;;;;;32.97;17.63;;;;;;;;;;4969992;28;20051;-67
2021/04/21 01:51:40;;;;;;;27.05;14.10;;;;;;;;;;4972671;28;20110;-67
2021/04/21 01:54:09;;;;;;;26.88;15.38;;;;;;;;;;4971275;28;20086;-67
2021/04/21 01:56:39;;;;;;;31.75;15.18;;;;;;;;;;4968272;28;20126;-68
2021/04/21 01:59:09;;;;;;;31.83;16.63;;;;;;;;;;4971496;28;20085;-67
2021/04/21 02:01:45;;;;;;;30.95;14.75;;;;;;;;;;4969749;28;20129;-67
2021/04/21 02:04:23;;;;;;;28.17;15.55;;;;;;;;;;4953848;28;20055;-67
2021/04/21 02:06:54;;;;;;;27.95;15.07;;;;;;;;;;4955726;28;20122;-67
2021/04/21 02:09:30;;;;;;;26.02;14.88;;;;;;;;;;4960615;28;20636;-67
2021/04/21 02:12:04;;;;;;;30.48;14.88;;;;;;;;;;4966508;28;20134;-67
2021/04/21 02:14:36;;;;;;;30.92;15.32;;;;;;;;;;4967078;28;20106;-68
2021/04/21 02:17:11;;;;;;;29.05;15.30;;;;;;;;;;4967403;28;20134;-68
2021/04/21 02:19:43;;;;;;;30.17;14.10;;;;;;;;;;4964842;28;20134;-67
2021/04/21 02:22:18;;;;;;;26.73;14.20;;;;;;;;;;4956078;28;20074;-67
2021/04/21 02:24:49;;;;;;;25.25;13.80;;;;;;;;;;4963665;28;20089;-67
2021/04/21 02:27:22;;;;;;;26.23;14.40;;;;;;;;;;4959799;28;20059;-67
2021/04/21 02:29:55;;;;;;;27.90;14.48;;;;;;;;;;4969586;28;20446;-67
2021/04/21 02:32:28;;;;;;;29.15;13.75;;;;;;;;;;4954274;28;20081;-67
2021/04/21 02:35:01;;;;;;;25.27;13.85;;;;;;;;;;4958133;28;20126;-67
2021/04/21 02:37:31;;;;;;;26.40;14.00;;;;;;;;;;4964744;28;20051;-67
2021/04/21 02:40:03;;;;;;;31.38;15.20;;;;;;;;;;4972910;28;20598;-67
2021/04/21 02:42:35;;;;;;;26.98;13.25;;;;;;;;;;4976313;28;20542;-67
2021/04/21 02:45:06;;;;;;;28.38;13.70;;;;;;;;;;4967144;28;20142;-67
2021/04/21 02:47:38;;;;;;;25.48;13.27;;;;;;;;;;4970186;28;20047;-67
2021/04/21 02:50:13;;;;;;;26.35;12.90;;;;;;;;;;4960814;28;20066;-67
2021/04/21 02:52:50;;;;;;;29.57;14.03;;;;;;;;;;4953429;28;20483;-67
2021/04/21 02:55:26;;;;;;;21.42;12.88;;;;;;;;;;4958127;28;20358;-67
2021/04/21 02:57:59;;;;;;;22.77;12.57;;;;;;;;;;4970996;28;20152;-67
2021/04/21 03:00:28;;;;;;;22.83;11.75;;;;;;;;;;4964487;28;20059;-67
2021/04/21 03:03:02;;;;;;;25.90;12.32;;;;;;;;;;4972215;28;20430;-67
2021/04/21 03:05:30;;;;;;;27.05;13.82;;;;;;;;;;4964421;28;20134;-67
2021/04/21 03:07:59;;;;;;;27.67;13.30;;;;;;;;;;4954459;28;20082;-67
2021/04/21 03:10:28;;;;;;;23.73;13.25;;;;;;;;;;4969376;28;20051;-67
2021/04/21 03:12:59;;;;;;;25.88;12.82;;;;;;;;;;4970541;28;20125;-67
2021/04/21 03:15:27;;;;;;;25.77;12.82;;;;;;;;;;4962941;28;20093;-67
2021/04/21 03:17:57;;;;;;;23.58;13.13;;;;;;;;;;4969017;28;20047;-67
2021/04/21 03:20:25;;;;;;;27.08;14.00;;;;;;;;;;4957742;28;20075;-67
2021/04/21 03:22:54;;;;;;;26.48;13.20;;;;;;;;;;4971604;28;20078;-67
2021/04/21 03:25:25;;;;;;;25.65;13.07;;;;;;;;;;4964611;28;20414;-67
2021/04/21 03:27:53;;;;;;;27.08;13.25;;;;;;;;;;4954256;28;20110;-67
2021/04/21 03:30:23;;;;;;;22.13;11.88;;;;;;;;;;4968432;28;20043;-67
2021/04/21 03:32:51;;;;;;;26.55;12.73;;;;;;;;;;4972189;28;20134;-67
2021/04/21 03:35:20;;;;;;;23.38;11.57;;;;;;;;;;4969784;28;20102;-67
2021/04/21 03:37:53;;;;;;;22.23;12.65;;;;;;;;;;4963565;28;20106;-67
2021/04/21 03:40:20;;;;;;;24.98;13.18;;;;;;;;;;4969458;28;20129;-67
2021/04/21 03:42:48;;;;;;;28.17;13.20;;;;;;;;;;4972659;28;20078;-67
2021/04/21 03:45:16;;;;;;;26.35;13.60;;;;;;;;;;4964919;28;20083;-67
2021/04/21 03:47:43;;;;;;;26.35;12.82;;;;;;;;;;4976397;28;20051;-67
2021/04/21 03:50:12;;;;;;;22.95;12.43;;;;;;;;;;4974645;28;20082;-67
2021/04/21 03:52:41;;;;;;;23.50;12.02;;;;;;;;;;4967853;28;20402;-67
2021/04/21 03:55:10;;;;;;;29.27;12.75;;;;;;;;;;4960414;28;20063;-67
2021/04/21 03:57:40;;;;;;;24.70;12.52;;;;;;;;;;4973756;28;20146;-67
2021/04/21 04:00:08;;;;;;;24.92;12.40;;;;;;;;;;4964659;28;20082;-67
2021/04/21 04:02:38;;;;;;;24.30;12.55;;;;;;;;;;4972195;28;20063;-67
2021/04/21 04:05:09;;;;;;;24.90;11.65;;;;;;;;;;4964312;28;20142;-67
2021/04/21 04:07:38;;;;;;;25.05;11.55;;;;;;;;;;4961864;28;20129;-67
2021/04/21 04:10:08;;;;;;;24.75;11.38;;;;;;;;;;4960354;28;20458;-67
2021/04/21 04:12:38;;;;;;;21.50;11.07;;;;;;;;;;4964670;28;20487;-67
2021/04/21 04:15:06;;;;;;;23.02;10.82;;;;;;;;;;4965346;28;20108;-67
2021/04/21 04:17:34;;;;;;;20.48;10.43;;;;;;;;;;4974239;28;20053;-67
2021/04/21 04:20:02;;;;;;;22.75;11.38;;;;;;;;;;4959048;28;20058;-67
2021/04/21 04:22:33;;;;;;;18.83;9.70;;;;;;;;;;4960335;28;20043;-67
2021/04/21 04:25:02;;;;;;;18.73;9.73;;;;;;;;;;4975272;28;20117;-67
2021/04/21 04:27:30;;;;;;;19.05;9.65;;;;;;;;;;4968782;28;20138;-67
2021/04/21 04:29:59;;;;;;;18.95;9.75;;;;;;;;;;4961035;28;20370;-67
2021/04/21 04:32:28;;;;;;;20.88;11.30;;;;;;;;;;4965639;28;20491;-67
2021/04/21 04:34:56;;;;;;;20.65;10.10;;;;;;;;;;4959116;28;20050;-67
2021/04/21 04:37:24;;;;;;;19.92;10.73;;;;;;;;;;4962114;28;20046;-67
2021/04/21 04:39:52;;;;;;;21.00;10.68;;;;;;;;;;4961000;28;20054;-67
2021/04/21 04:42:19;;;;;;;19.95;9.88;;;;;;;;;;4968748;28;20295;-67
2021/04/21 04:44:48;;;;;;;20.20;10.60;;;;;;;;;;4973177;28;20070;-67
2021/04/21 04:47:20;;;;;;;21.75;10.73;;;;;;;;;;4972777;28;20050;-67
2021/04/21 04:49:49;;;;;;;18.27;9.80;;;;;;;;;;4975193;28;20486;-67
2021/04/21 04:52:16;;;;;;;20.70;10.10;;;;;;;;;;4973947;28;20490;-67
2021/04/21 04:54:44;;;;;;;19.95;9.75;;;;;;;;;;4971360;28;20046;-67
2021/04/21 04:57:13;;;;;;;20.40;10.15;;;;;;;;;;4971956;28;20402;-67
2021/04/21 04:59:41;;;;;;;18.77;9.85;;;;;;;;;;4972521;28;20043;-67
2021/04/21 05:02:10;;;;;;;19.75;9.98;;;;;;;;;;4963774;28;20131;-67
2021/04/21 05:04:42;;;;;;;16.80;9.75;;;;;;;;;;4975335;28;20059;-67
2021/04/21 05:07:09;;;;;;;19.58;10.88;;;;;;;;;;4967836;28;20113;-67
2021/04/21 05:09:40;;;;;;;20.15;9.43;;;;;;;;;;4968031;28;20118;-67
2021/04/21 05:12:09;;;;;;;20.55;9.73;;;;;;;;;;4968782;28;20538;-67
2021/04/21 05:14:38;;;;;;;17.08;9.85;;;;;;;;;;4967531;28;20154;-66
2021/04/21 05:17:25;;;;;;;17.02;9.38;;;;;;;;;;4970120;28;20051;-67
2021/04/21 05:20:11;;;;;;;19.27;10.57;;;;;;;;;;4958471;28;20054;-66
2021/04/21 05:22:56;;;;;;;22.73;10.10;;;;;;;;;;4957922;28;20077;-66
2021/04/21 05:25:41;;;;;;;19.90;9.88;;;;;;;;;;4957445;28;20193;-66
2021/04/21 05:28:27;;;;;;;17.50;10.82;;;;;;;;;;4968788;28;20134;-67
2021/04/21 05:31:13;;;;;;;21.05;11.38;;;;;;;;;;4963224;28;20075;-66
2021/04/21 05:33:56;;;;;;;24.38;11.63;;;;;;;;;;4964935;28;20133;-66
2021/04/21 05:36:38;;;;;;;18.23;9.93;;;;;;;;;;4970236;28;20124;-67
2021/04/21 05:39:30;;;;;;;21.75;10.52;;;;;;;;;;4961102;28;20074;-69
2021/04/21 05:42:16;;;;;;;22.13;10.55;;;;;;;;;;4969292;28;20118;-69
2021/04/21 05:45:04;;;;;;;18.08;10.35;;;;;;;;;;4962954;28;20524;-69
2021/04/21 05:47:57;;;;;;;18.33;9.60;;;;;;;;;;4960046;28;20581;-68
2021/04/21 05:50:42;;;;;;;19.35;10.48;;;;;;;;;;4967792;28;20560;-69
2021/04/21 05:53:10;;;;;;;;;;;;;;;;;;4963663;28;20057;-68
2021/04/21 05:55:56;;;;;;;20.88;10.43;;;;;;;;;;4961490;28;20224;-67
2021/04/21 05:58:37;;;;;;;26.17;12.40;;;;;;;;;;4973380;28;20054;-67
2021/04/21 06:01:17;;;;;;;25.98;12.30;;;;;;;;;;4959247;28;20051;-67
2021/04/21 06:03:58;;;;;;;21.10;11.35;;;;;;;;;;3973370;28;10002345;-68
2021/04/21 06:06:26;;;;;;;25.65;11.13;;;;;;;;;;2055243;28;10002071;-68
2021/04/21 06:08:54;;;;;;;20.85;11.07;;;;;;;;;;4955019;28;20122;-67
2021/04/21 06:11:23;;;;;;;23.08;12.02;;;;;;;;;;4964917;28;20042;-67
2021/04/21 06:13:51;;;;;;;21.13;12.00;;;;;;;;;;4969951;28;20113;-68
2021/04/21 06:16:19;;;;;;;21.02;12.40;;;;;;;;;;4964841;28;20066;-68
2021/04/21 06:18:51;;;;;;;24.35;12.23;;;;;;;;;;4958293;28;20542;-68
2021/04/21 06:21:19;;;;;;;22.48;12.32;;;;;;;;;;4956309;28;20083;-68
2021/04/21 06:23:47;;;;;;;21.52;12.45;;;;;;;;;;4969275;28;20406;-68
2021/04/21 06:26:19;;;;;;;19.85;12.07;;;;;;;;;;4969535;28;20058;-69
2021/04/21 06:28:59;;;;;;;28.25;14.45;;;;;;;;;;4969446;28;20055;-68
2021/04/21 06:31:32;;;;;;;27.92;15.25;;;;;;;;;;4963193;28;20075;-68
2021/04/21 06:33:59;;;;;;;22.38;13.38;;;;;;;;;;4959893;28;20055;-69
2021/04/21 06:36:32;;;;;;;30.00;15.20;;;;;;;;;;4957476;28;20050;-69
2021/04/21 06:38:59;;;;;;;29.70;16.60;;;;;;;;;;4963113;28;20058;-69
2021/04/21 06:41:27;;;;;;;24.50;13.70;;;;;;;;;;4967293;28;20561;-68
2021/04/21 06:43:56;;;;;;;22.30;13.73;;;;;;;;;;4965314;28;20057;-69
2021/04/21 06:46:25;;;;;;;28.05;15.85;;;;;;;;;;4964508;28;20050;-69
2021/04/21 06:48:53;;;;;;;23.73;13.55;;;;;;;;;;4963424;28;20082;-69
2021/04/21 06:51:22;;;;;;;25.05;14.88;;;;;;;;;;4961817;28;20055;-69
2021/04/21 06:53:52;;;;;;;29.40;13.65;;;;;;;;;;4964785;28;20042;-69
2021/04/21 06:56:29;;;;;;;26.65;13.35;;;;;;;;;;4966922;28;20133;-69
2021/04/21 06:58:56;;;;;;;;;;;;;;;;;;4958340;28;20047;-69
2021/04/21 07:01:26;;;;;;;26.10;12.70;;;;;;;;;;4953471;28;20345;-69
2021/04/21 07:03:55;;;;;;;27.45;13.35;;;;;;;;;;4969389;28;20070;-69
2021/04/21 07:06:23;;;;;;;30.17;13.27;;;;;;;;;;4963507;28;20051;-69
2021/04/21 07:08:51;;;;;;;27.83;14.45;;;;;;;;;;4950706;28;20098;-69
2021/04/21 07:11:19;;;;;;;25.83;13.85;;;;;;;;;;4963312;28;20063;-69
2021/04/21 07:13:48;;;;;;;36.83;14.32;;;;;;;;;;4966767;28;20455;-69
2021/04/21 07:16:19;;;;;;;27.55;13.98;;;;;;;;;;4966916;28;20515;-69
2021/04/21 07:18:50;;;;;;;27.73;14.07;;;;;;;;;;4954243;28;20145;-69
2021/04/21 07:21:19;;;;;;;24.35;12.95;;;;;;;;;;4960213;28;20390;-69
2021/04/21 07:23:47;;;;;;;23.85;12.30;;;;;;;;;;4969614;28;20149;-69
2021/04/21 07:26:15;;;;;;;28.38;14.55;;;;;;;;;;4958144;28;20142;-69
2021/04/21 07:28:43;;;;;;;32.85;13.93;;;;;;;;;;4959493;28;20047;-69
2021/04/21 07:31:13;;;;;;;26.27;12.35;;;;;;;;;;4965602;28;20043;-69
2021/04/21 07:33:43;;;;;;;28.25;12.48;;;;;;;;;;4951825;28;20130;-69
2021/04/21 07:36:13;;;;;;;27.92;13.05;;;;;;;;;;4954793;28;20059;-69
2021/04/21 07:38:42;;;;;;;25.40;12.25;;;;;;;;;;4962051;28;20058;-70
2021/04/21 07:41:10;;;;;;;23.60;13.45;;;;;;;;;;4966225;28;20090;-70
2021/04/21 07:43:40;;;;;;;22.70;11.57;;;;;;;;;;4956315;28;20051;-70
2021/04/21 07:46:13;;;;;;;24.95;12.05;;;;;;;;;;4965715;28;20061;-70
2021/04/21 07:48:45;;;;;;;19.73;11.02;;;;;;;;;;4957026;28;20507;-70
2021/04/21 07:51:31;;;;;;;19.75;11.77;;;;;;;;;;4957199;28;20053;-70
2021/04/21 07:54:01;;;;;;;19.38;10.32;;;;;;;;;;4968103;28;20071;-70
2021/04/21 07:56:39;;;;;;;22.15;11.88;;;;;;;;;;4953002;28;20106;-70
2021/04/21 07:59:14;;;;;;;18.88;10.65;;;;;;;;;;4923273;29;20141;-69
2021/04/21 08:01:42;;;;;;;18.42;10.20;;;;;;;;;;4948065;29;20050;-69
2021/04/21 08:04:21;;;;;;;16.08;9.95;;;;;;;;;;4945775;29;20059;-70
2021/04/21 08:06:55;;;;;;;17.88;10.57;;;;;;;;;;4942364;28;20039;-70
2021/04/21 08:09:24;;;;;;;16.05;9.98;;;;;;;;;;4966747;28;20051;-69
2021/04/21 08:12:08;;;;;;;21.05;10.50;;;;;;;;;;4969188;28;20047;-69
2021/04/21 08:14:40;;;;;;;18.05;10.82;;;;;;;;;;4961845;28;20528;-69
2021/04/21 08:17:08;;;;;;;17.38;10.43;;;;;;;;;;4950301;29;20146;-69
2021/04/21 08:19:36;;;;;;;17.10;8.95;;;;;;;;;;4961917;28;20441;-69
2021/04/21 08:22:06;;;;;;;17.23;10.10;;;;;;;;;;4968320;28;20154;-69
2021/04/21 08:24:41;;;;;;;17.58;10.27;;;;;;;;;;4968221;28;20051;-70
2021/04/21 08:27:11;;;;;;;19.08;11.00;;;;;;;;;;4959640;28;20059;-69
2021/04/21 08:29:39;;;;;;;17.23;9.95;;;;;;;;;;4963150;28;20047;-69
2021/04/21 08:32:08;;;;;;;18.35;10.50;;;;;;;;;;4956861;28;20491;-69
2021/04/21 08:34:35;;;;;;;18.13;10.23;;;;;;;;;;4965164;28;20431;-69
2021/04/21 08:37:04;;;;;;;16.08;9.13;;;;;;;;;;4967862;28;20050;-69
2021/04/21 08:39:37;;;;;;;15.98;9.73;;;;;;;;;;4964103;28;20053;-69
2021/04/21 08:42:07;;;;;;;16.10;9.77;;;;;;;;;;4954583;28;20533;-69
2021/04/21 08:44:40;;;;;;;17.45;9.75;;;;;;;;;;4966838;28;20503;-69
2021/04/21 08:47:09;;;;;;;17.58;9.23;;;;;;;;;;4965624;28;20074;-69
2021/04/21 08:49:39;;;;;;;16.17;9.93;;;;;;;;;;4939717;29;20051;-69
2021/04/21 08:52:07;;;;;;;15.07;9.50;;;;;;;;;;4941142;29;20062;-69
2021/04/21 08:54:36;;;;;;;18.17;10.70;;;;;;;;;;4943659;29;20130;-69
2021/04/21 08:57:06;;;;;;;21.75;10.68;;;;;;;;;;4948019;28;20134;-69
2021/04/21 08:59:34;;;;;;;17.80;10.30;;;;;;;;;;4949718;28;20511;-69
2021/04/21 09:02:02;;;;;;;18.30;9.88;;;;;;;;;;4948434;28;20280;-69
2021/04/21 09:04:31;;;;;;;17.63;9.02;;;;;;;;;;4967599;28;20117;-69
2021/04/21 09:06:59;;;;;;;16.92;11.02;;;;;;;;;;4953714;28;20058;-69
2021/04/21 09:09:29;;;;;;;15.23;9.73;;;;;;;;;;4971336;28;20051;-68
2021/04/21 09:12:00;;;;;;;17.02;9.82;;;;;;;;;;4969138;28;20043;-70
2021/04/21 09:14:30;;;;;;;23.85;11.00;;;;;;;;;;4969630;28;20081;-71
2021/04/21 09:16:58;;;;;;;18.70;10.50;;;;;;;;;;4970995;28;20047;-69
2021/04/21 09:19:26;;;;;;;16.45;11.10;;;;;;;;;;4971577;28;20049;-69
2021/04/21 09:22:09;;;;;;;16.42;10.45;;;;;;;;;;4972345;28;20077;-69
2021/04/21 09:24:38;;;;;;;14.63;9.73;;;;;;;;;;4965634;28;20541;-70
2021/04/21 09:27:25;;;;;;;15.90;10.02;;;;;;;;;;4952032;29;20454;-69
2021/04/21 09:30:07;;;;;;;17.10;10.60;;;;;;;;;;4955190;28;20086;-69
2021/04/21 09:32:43;;;;;;;16.88;10.70;;;;;;;;;;4969129;28;20564;-70
2021/04/21 09:35:16;;;;;;;15.70;9.88;;;;;;;;;;4970865;28;20550;-70
2021/04/21 09:37:44;;;;;;;21.13;10.75;;;;;;;;;;4970034;28;20117;-70
2021/04/21 09:40:12;;;;;;;19.55;11.82;;;;;;;;;;4967235;28;20051;-70
2021/04/21 09:42:40;;;;;;;16.67;10.23;;;;;;;;;;4971318;28;20053;-67
2021/04/21 09:45:09;;;;;;;18.95;9.95;;;;;;;;;;4970657;28;20050;-68
2021/04/21 09:47:37;;;;;;;17.88;10.98;;;;;;;;;;4966287;28;20062;-69
2021/04/21 09:50:07;;;;;;;14.55;9.85;;;;;;;;;;4966312;28;20053;-69
2021/04/21 09:52:35;;;;;;;16.10;10.38;;;;;;;;;;4971365;28;20526;-70
2021/04/21 09:55:15;;;;;;;20.75;10.20;;;;;;;;;;4969320;28;20047;-70
2021/04/21 09:57:42;;;;;;;18.50;10.88;;;;;;;;;;4970835;28;20055;-70
2021/04/21 10:00:11;;;;;;;13.35;9.68;;;;;;;;;;4966790;28;20503;-70
2021/04/21 10:02:40;;;;;;;18.13;10.85;;;;;;;;;;4970372;28;20098;-70
2021/04/21 10:05:27;;;;;;;16.70;10.55;;;;;;;;;;4962584;28;20047;-70
2021/04/21 10:08:15;;;;;;;13.98;10.15;;;;;;;;;;4963763;28;20489;-69
2021/04/21 10:10:44;;;;;;;16.80;10.55;;;;;;;;;;4959189;28;20082;-70
2021/04/21 10:13:19;;;;;;;15.32;11.15;;;;;;;;;;4970656;28;20051;-70
2021/04/21 10:16:07;;;;;;;16.60;10.75;;;;;;;;;;4968728;28;20054;-70
2021/04/21 10:18:36;;;;;;;13.82;9.38;;;;;;;;;;4975920;28;20129;-70
2021/04/21 10:21:06;;;;;;;16.98;10.00;;;;;;;;;;4966741;28;20043;-70
2021/04/21 10:23:34;;;;;;;16.10;10.18;;;;;;;;;;4966966;28;20074;-70
2021/04/21 10:26:02;;;;;;;18.75;9.48;;;;;;;;;;4970354;28;20175;-69
2021/04/21 10:28:30;;;;;;;15.40;9.95;;;;;;;;;;4970441;28;20054;-70
2021/04/21 10:30:58;;;;;;;16.70;10.50;;;;;;;;;;4965889;28;20050;-70
2021/04/21 10:33:27;;;;;;;18.58;9.60;;;;;;;;;;4970313;28;20042;-70
2021/04/21 10:35:56;;;;;;;15.30;9.73;;;;;;;;;;4969800;28;20132;-70
2021/04/21 10:38:29;;;;;;;15.32;9.88;;;;;;;;;;4966143;28;20169;-70
2021/04/21 10:41:16;;;;;;;18.30;10.20;;;;;;;;;;4965293;28;20078;-70
2021/04/21 10:43:43;;;;;;;16.05;10.13;;;;;;;;;;4963206;28;20043;-70
2021/04/21 10:46:11;;;;;;;15.85;9.32;;;;;;;;;;4964625;28;20396;-70
2021/04/21 10:48:40;;;;;;;13.40;9.57;;;;;;;;;;4966865;28;20426;-70
2021/04/21 10:51:28;;;;;;;17.90;10.38;;;;;;;;;;4964786;28;20577;-69
2021/04/21 10:54:00;;;;;;;15.07;10.15;;;;;;;;;;4965286;28;20043;-70
2021/04/21 10:56:28;;;;;;;14.13;9.38;;;;;;;;;;4964807;28;20043;-70
2021/04/21 10:58:57;;;;;;;18.70;12.13;;;;;;;;;;4963347;28;20538;-69
2021/04/21 11:01:28;;;;;;;14.13;10.13;;;;;;;;;;4981873;28;20050;-70
2021/04/21 11:03:55;;;;;;;17.35;10.27;;;;;;;;;;4960935;28;20143;-70
2021/04/21 11:06:45;;;;;;;17.70;10.43;;;;;;;;;;4958520;28;20070;-70
2021/04/21 11:09:16;;;;;;;14.13;9.90;;;;;;;;;;4941514;29;20066;-70
2021/04/21 11:11:46;;;;;;;15.13;9.82;;;;;;;;;;4956252;28;20058;-69
2021/04/21 11:14:18;;;;;;;16.63;10.45;;;;;;;;;;4965761;28;20085;-70
2021/04/21 11:16:46;;;;;;;15.50;10.35;;;;;;;;;;4960018;28;20614;-70
2021/04/21 11:19:30;;;;;;;14.45;9.13;;;;;;;;;;4968585;28;20051;-69
2021/04/21 11:22:16;;;;;;;18.20;11.48;;;;;;;;;;4966692;28;20121;-69
2021/04/21 11:24:45;;;;;;;17.70;10.90;;;;;;;;;;4963863;28;20050;-69
2021/04/21 11:27:28;;;;;;;18.73;10.02;;;;;;;;;;4955416;28;20055;-69
2021/04/21 11:29:56;;;;;;;14.80;9.98;;;;;;;;;;4964392;28;20057;-69
2021/04/21 11:32:38;;;;;;;13.63;9.95;;;;;;;;;;4963456;28;20051;-69
2021/04/21 11:35:30;;;;;;;17.88;10.60;;;;;;;;;;4964798;28;20043;-69
2021/04/21 11:37:57;;;;;;;21.65;11.40;;;;;;;;;;4951374;28;20046;-70
2021/04/21 11:40:30;;;;;;;18.27;11.20;;;;;;;;;;4961847;28;20142;-70
2021/04/21 11:43:13;;;;;;;20.50;11.05;;;;;;;;;;4965945;28;20051;-71
2021/04/21 11:45:42;;;;;;;19.00;11.85;;;;;;;;;;4967188;28;20066;-71
2021/04/21 11:48:20;;;;;;;15.90;10.70;;;;;;;;;;4965958;28;20541;-70
2021/04/21 11:50:50;;;;;;;19.15;11.68;;;;;;;;;;4955652;28;20546;-70
2021/04/21 11:53:20;;;;;;;17.85;11.85;;;;;;;;;;4964857;28;20387;-71
2021/04/21 11:55:52;;;;;;;15.90;10.05;;;;;;;;;;4963781;28;20428;-70
2021/04/21 11:58:22;;;;;;;14.93;10.50;;;;;;;;;;4956167;28;20055;-70
2021/04/21 12:00:51;;;;;;;16.23;10.60;;;;;;;;;;4966042;28;20051;-70
2021/04/21 12:03:20;;;;;;;13.98;10.40;;;;;;;;;;4965391;28;20562;-70
2021/04/21 12:05:49;;;;;;;14.55;9.40;;;;;;;;;;4967719;28;20043;-70
2021/04/21 12:08:20;;;;;;;12.82;9.50;;;;;;;;;;4971411;28;20059;-70
2021/04/21 12:10:50;;;;;;;14.27;9.40;;;;;;;;;;4955103;28;20051;-70
2021/04/21 12:13:19;;;;;;;16.98;10.88;;;;;;;;;;4954491;29;20059;-70
2021/04/21 12:15:48;;;;;;;15.05;9.70;;;;;;;;;;4963332;28;20097;-70
2021/04/21 12:18:25;;;;;;;16.33;9.20;;;;;;;;;;4962236;28;20057;-70
2021/04/21 12:20:54;;;;;;;13.23;9.15;;;;;;;;;;4968993;28;20051;-70
2021/04/21 12:23:28;;;;;;;15.13;9.68;;;;;;;;;;4961467;28;20047;-70
2021/04/21 12:25:57;;;;;;;12.38;8.77;;;;;;;;;;4965866;28;20049;-71
2021/04/21 12:28:25;;;;;;;15.20;9.50;;;;;;;;;;4967635;28;20395;-71
2021/04/21 12:30:58;;;;;;;16.42;10.00;;;;;;;;;;4961934;28;20559;-71
2021/04/21 12:33:26;;;;;;;16.00;9.07;;;;;;;;;;4959629;28;20511;-69
2021/04/21 12:35:57;;;;;;;13.20;8.23;;;;;;;;;;4966286;28;20055;-69
2021/04/21 12:38:29;;;;;;;14.07;9.68;;;;;;;;;;4964589;28;20463;-69
2021/04/21 12:40:58;;;;;;;16.48;10.10;;;;;;;;;;4967200;28;20769;-69
2021/04/21 12:43:27;;;;;;;15.10;9.40;;;;;;;;;;4962020;28;20047;-70
2021/04/21 12:46:10;;;;;;;14.20;9.38;;;;;;;;;;4971544;28;20053;-70
2021/04/21 12:48:59;;;;;;;14.80;8.45;;;;;;;;;;4970454;28;20152;-70
2021/04/21 12:51:30;;;;;;;12.88;8.50;;;;;;;;;;4962145;28;20051;-72
2021/04/21 12:53:57;;;;;;;12.52;8.85;;;;;;;;;;4969066;28;20047;-69
2021/04/21 12:56:36;;;;;;;14.27;8.45;;;;;;;;;;4956550;28;20059;-69
2021/04/21 12:59:14;;;;;;;12.93;8.27;;;;;;;;;;4957101;28;20133;-69
2021/04/21 13:01:41;;;;;;;12.20;8.65;;;;;;;;;;4970256;28;20503;-70
2021/04/21 13:04:11;;;;;;;14.15;8.18;;;;;;;;;;4962798;28;20055;-70
2021/04/21 13:06:40;;;;;;;12.57;9.77;;;;;;;;;;4963094;28;20483;-69
2021/04/21 13:09:10;;;;;;;13.52;8.40;;;;;;;;;;4954760;28;20077;-69
2021/04/21 13:11:38;;;;;;;15.50;10.02;;;;;;;;;;4962639;28;20055;-70
2021/04/21 13:14:07;;;;;;;14.00;9.95;;;;;;;;;;4952368;28;20047;-70
2021/04/21 13:16:37;;;;;;;16.58;10.27;;;;;;;;;;4967283;28;20438;-70
2021/04/21 13:19:19;;;;;;;19.15;11.07;;;;;;;;;;4959387;28;20082;-69
2021/04/21 13:21:57;;;;;;;18.77;10.60;;;;;;;;;;4963485;28;20097;-69
2021/04/21 13:24:25;;;;;;;17.13;10.85;;;;;;;;;;4957383;28;20043;-69
2021/04/21 13:26:53;;;;;;;17.30;10.75;;;;;;;;;;4957515;28;20059;-69
2021/04/21 13:29:31;;;;;;;19.80;11.32;;;;;;;;;;4961069;28;20047;-69
2021/04/21 13:32:11;;;;;;;17.33;11.20;;;;;;;;;;4965373;28;20282;-69
2021/04/21 13:34:39;;;;;;;19.50;11.35;;;;;;;;;;4963444;28;20157;-70
2021/04/21 13:37:07;;;;;;;18.33;11.20;;;;;;;;;;4959097;28;20055;-70
2021/04/21 13:39:44;;;;;;;17.83;10.88;;;;;;;;;;4961578;28;20043;-70
2021/04/21 13:42:13;;;;;;;15.68;11.05;;;;;;;;;;4965080;28;20090;-69
2021/04/21 13:44:41;;;;;;;15.68;10.50;;;;;;;;;;4961658;28;20141;-70
2021/04/21 13:47:09;;;;;;;16.55;11.60;;;;;;;;;;4960520;28;20506;-70
2021/04/21 13:49:37;;;;;;;19.40;11.55;;;;;;;;;;4967522;28;20740;-69
2021/04/21 13:52:06;;;;;;;16.48;11.38;;;;;;;;;;4969501;28;20058;-69
2021/04/21 13:54:34;;;;;;;18.35;10.63;;;;;;;;;;4970073;28;20054;-70
2021/04/21 13:57:02;;;;;;;17.58;11.20;;;;;;;;;;4955896;28;20103;-70
2021/04/21 13:59:31;;;;;;;15.68;10.90;;;;;;;;;;4958382;28;20134;-69
2021/04/21 14:01:59;;;;;;;16.55;11.50;;;;;;;;;;4958901;28;20078;-70
2021/04/21 14:04:27;;;;;;;22.98;11.98;;;;;;;;;;4952003;29;20086;-71
2021/04/21 14:06:55;;;;;;;18.23;11.98;;;;;;;;;;4967017;28;20058;-70
2021/04/21 14:09:23;;;;;;;14.57;10.38;;;;;;;;;;4961065;28;20047;-70
2021/04/21 14:11:51;;;;;;;15.85;11.18;;;;;;;;;;4952504;28;20055;-71
2021/04/21 14:14:18;;;;;;;18.83;11.18;;;;;;;;;;4959070;28;20421;-70
2021/04/21 14:16:47;;;;;;;17.15;10.95;;;;;;;;;;4961329;28;20051;-70
2021/04/21 14:19:15;;;;;;;17.85;12.00;;;;;;;;;;4964680;28;20053;-69
2021/04/21 14:21:43;;;;;;;18.17;10.05;;;;;;;;;;4957858;28;20047;-69
2021/04/21 14:24:11;;;;;;;18.40;11.50;;;;;;;;;;4967246;28;20062;-70
2021/04/21 14:26:39;;;;;;;19.63;11.45;;;;;;;;;;4967596;28;20063;-69
2021/04/21 14:29:07;;;;;;;19.20;12.60;;;;;;;;;;4958296;28;20567;-69
2021/04/21 14:31:36;;;;;;;20.77;12.77;;;;;;;;;;4954311;28;20502;-70
2021/04/21 14:34:06;;;;;;;17.80;11.80;;;;;;;;;;4969485;28;20046;-69
2021/04/21 14:36:34;;;;;;;15.50;10.18;;;;;;;;;;4959458;28;20062;-71
2021/04/21 14:39:02;;;;;;;19.45;11.75;;;;;;;;;;4964656;28;20049;-70
2021/04/21 14:41:29;;;;;;;16.98;11.90;;;;;;;;;;4963752;28;20107;-69
2021/04/21 14:43:57;;;;;;;19.80;11.40;;;;;;;;;;4966615;28;20122;-71
2021/04/21 14:46:25;;;;;;;20.45;11.88;;;;;;;;;;4966933;28;20050;-69